createdAt,value
2022-09-15T00:00:44.093Z,15.2
2022-09-15T00:01:43.944Z,15.2
2022-09-15T00:02:43.983Z,15.2
2022-09-15T00:03:43.886Z,15.1
2022-09-15T00:04:43.897Z,15
2022-09-15T00:05:43.968Z,14.9
2022-09-15T00:06:44.017Z,14.9
2022-09-15T00:07:44.028Z,14.9
2022-09-15T00:08:44.058Z,15
2022-09-15T00:09:44.081Z,15.1
2022-09-15T00:10:44.144Z,15.1
2022-09-15T00:11:44.426Z,15
2022-09-15T00:12:44.503Z,14.9
2022-09-15T00:13:44.400Z,14.8
2022-09-15T00:14:44.519Z,14.8
2022-09-15T00:15:44.965Z,14.9
2022-09-15T00:16:44.623Z,14.9
2022-09-15T00:17:44.504Z,14.9
2022-09-15T00:18:44.659Z,14.9
2022-09-15T00:19:44.559Z,14.9
2022-09-15T00:20:44.951Z,14.9
2022-09-15T00:21:44.839Z,14.8
2022-09-15T00:22:45.027Z,14.9
2022-09-15T00:23:44.761Z,14.9
2022-09-15T00:24:44.902Z,14.9
2022-09-15T00:25:45.650Z,15
2022-09-15T00:26:45.349Z,15
2022-09-15T00:27:45.151Z,15.1
2022-09-15T00:28:45.642Z,14.9
2022-09-15T00:29:45.463Z,15
2022-09-15T00:30:45.369Z,14.9
2022-09-15T00:31:45.359Z,14.9
2022-09-15T00:32:45.402Z,15
2022-09-15T00:33:45.430Z,14.9
2022-09-15T00:34:45.540Z,15
2022-09-15T00:35:45.713Z,15
2022-09-15T00:36:45.768Z,15
2022-09-15T00:37:45.958Z,15
2022-09-15T00:38:45.955Z,15
2022-09-15T00:39:46.299Z,15.1
2022-09-15T00:40:46.140Z,15.1
2022-09-15T00:41:46.005Z,15.1
2022-09-15T00:42:45.999Z,15.1
2022-09-15T00:43:46.221Z,15
2022-09-15T00:44:46.228Z,14.9
2022-09-15T00:45:46.288Z,14.9
2022-09-15T00:46:54.780Z,15
2022-09-15T00:47:48.703Z,15
2022-09-15T00:48:46.043Z,15
2022-09-15T00:49:46.437Z,15.1
2022-09-15T00:50:51.350Z,15.1
2022-09-15T00:51:46.179Z,15
2022-09-15T00:52:46.378Z,15
2022-09-15T00:54:21.409Z,15
2022-09-15T00:55:08.753Z,14.9
2022-09-15T00:55:46.428Z,15
2022-09-15T00:58:02.765Z,15
2022-09-15T00:58:47.663Z,14.9
2022-09-15T00:59:47.188Z,14.8
2022-09-15T01:00:46.534Z,14.8
2022-09-15T01:01:49.640Z,14.8
2022-09-15T01:02:46.729Z,14.8
2022-09-15T01:03:46.565Z,14.8
2022-09-15T01:04:47.125Z,14.8
2022-09-15T01:05:46.873Z,14.9
2022-09-15T01:06:47.781Z,15.1
2022-09-15T01:07:47.777Z,15
2022-09-15T01:08:46.938Z,15
2022-09-15T01:09:48.330Z,15
2022-09-15T01:10:48.914Z,14.9
2022-09-15T01:11:49.143Z,14.8
2022-09-15T01:12:46.856Z,14.8
2022-09-15T01:13:48.008Z,14.8
2022-09-15T01:14:47.469Z,14.8
2022-09-15T01:15:47.816Z,14.9
2022-09-15T01:16:47.057Z,15
2022-09-15T01:17:47.154Z,14.9
2022-09-15T01:18:49.112Z,14.8
2022-09-15T01:19:47.149Z,14.9
2022-09-15T01:20:47.276Z,14.9
2022-09-15T01:21:49.639Z,14.8
2022-09-15T01:22:47.364Z,14.8
2022-09-15T01:23:47.497Z,14.9
2022-09-15T01:24:47.694Z,15
2022-09-15T01:25:49.162Z,15
2022-09-15T01:26:47.619Z,14.8
2022-09-15T01:27:47.457Z,14.9
2022-09-15T01:28:55.671Z,14.9
2022-09-15T01:29:47.538Z,15.1
2022-09-15T01:30:47.859Z,15
2022-09-15T01:31:47.878Z,14.9
2022-09-15T01:32:47.558Z,14.9
2022-09-15T01:33:47.687Z,14.8
2022-09-15T01:34:48.179Z,14.8
2022-09-15T01:35:47.811Z,14.9
2022-09-15T01:36:47.894Z,14.9
2022-09-15T01:37:48.208Z,15
2022-09-15T01:38:48.416Z,14.9
2022-09-15T01:39:48.155Z,14.9
2022-09-15T01:40:48.168Z,14.8
2022-09-15T01:41:48.597Z,14.7
2022-09-15T01:42:48.298Z,14.6
2022-09-15T01:43:48.350Z,14.6
2022-09-15T01:44:48.697Z,14.5
2022-09-15T01:45:48.521Z,14.5
2022-09-15T01:46:48.663Z,14.6
2022-09-15T01:47:48.880Z,14.6
2022-09-15T01:48:49.568Z,14.5
2022-09-15T01:49:49.426Z,14.4
2022-09-15T01:50:50.593Z,14.4
2022-09-15T01:51:48.697Z,14.4
2022-09-15T01:52:48.989Z,14.5
2022-09-15T01:53:49.094Z,14.6
2022-09-15T01:54:48.822Z,14.6
2022-09-15T01:55:48.909Z,14.6
2022-09-15T01:56:49.198Z,14.7
2022-09-15T01:57:49.066Z,14.5
2022-09-15T01:58:55.093Z,14.5
2022-09-15T01:59:49.278Z,14.5
2022-09-15T02:00:49.088Z,14.5
2022-09-15T02:01:49.397Z,14.5
2022-09-15T02:02:50.534Z,14.4
2022-09-15T02:03:49.394Z,14.6
2022-09-15T02:04:53.581Z,14.5
2022-09-15T02:05:49.178Z,14.4
2022-09-15T02:06:56.570Z,14.4
2022-09-15T02:07:49.622Z,14.4
2022-09-15T02:08:50.001Z,14.4
2022-09-15T02:09:49.675Z,14.4
2022-09-15T02:10:50.084Z,14.5
2022-09-15T02:11:49.454Z,14.4
2022-09-15T02:12:51.840Z,14.4
2022-09-15T02:13:53.518Z,14.3
2022-09-15T02:14:49.758Z,14.3
2022-09-15T02:15:49.471Z,14.2
2022-09-15T02:16:49.591Z,14.2
2022-09-15T02:17:49.522Z,14.2
2022-09-15T02:18:49.527Z,14.2
2022-09-15T02:19:49.808Z,14.1
2022-09-15T02:20:49.585Z,14.2
2022-09-15T02:21:49.612Z,14.2
2022-09-15T02:22:49.660Z,14.1
2022-09-15T02:23:49.797Z,14.2
2022-09-15T02:24:49.780Z,14.2
2022-09-15T02:25:49.980Z,14.1
2022-09-15T02:26:50.143Z,14
2022-09-15T02:27:49.859Z,14
2022-09-15T02:28:49.902Z,14
2022-09-15T02:29:49.934Z,13.9
2022-09-15T02:30:50.070Z,14
2022-09-15T02:31:50.096Z,14.1
2022-09-15T02:32:50.022Z,14.1
2022-09-15T02:33:50.082Z,14.2
2022-09-15T02:34:50.306Z,14.3
2022-09-15T02:35:50.226Z,14.2
2022-09-15T02:36:50.216Z,14.1
2022-09-15T02:37:50.237Z,14
2022-09-15T02:38:50.358Z,13.9
2022-09-15T02:39:50.347Z,13.8
2022-09-15T02:40:50.336Z,13.8
2022-09-15T02:41:50.367Z,13.9
2022-09-15T02:42:50.381Z,13.9
2022-09-15T02:43:50.598Z,14
2022-09-15T02:44:50.521Z,14
2022-09-15T02:45:50.818Z,13.9
2022-09-15T02:46:50.666Z,13.9
2022-09-15T02:47:50.739Z,14
2022-09-15T02:48:50.984Z,14.2
2022-09-15T02:49:50.856Z,14.1
2022-09-15T02:50:51.179Z,13.9
2022-09-15T02:51:51.271Z,13.9
2022-09-15T02:52:51.061Z,13.8
2022-09-15T02:53:51.214Z,13.8
2022-09-15T02:54:56.257Z,13.8
2022-09-15T02:55:51.291Z,13.8
2022-09-15T02:56:51.338Z,13.9
2022-09-15T02:57:51.391Z,14
2022-09-15T02:58:51.622Z,14.1
2022-09-15T02:59:52.107Z,14
2022-09-15T03:00:51.952Z,13.9
2022-09-15T03:01:52.385Z,13.9
2022-09-15T03:03:14.104Z,13.8
2022-09-15T03:03:51.703Z,13.7
2022-09-15T03:04:51.858Z,13.8
2022-09-15T03:05:51.800Z,13.8
2022-09-15T03:06:52.047Z,13.8
2022-09-15T03:07:51.905Z,13.7
2022-09-15T03:08:51.979Z,13.6
2022-09-15T03:09:51.882Z,13.6
2022-09-15T03:10:52.014Z,13.6
2022-09-15T03:11:51.955Z,13.6
2022-09-15T03:12:52.002Z,13.6
2022-09-15T03:13:57.152Z,13.6
2022-09-15T03:14:52.063Z,13.6
2022-09-15T03:15:52.450Z,13.7
2022-09-15T03:16:52.155Z,13.8
2022-09-15T03:17:52.466Z,13.9
2022-09-15T03:18:52.151Z,13.8
2022-09-15T03:19:52.198Z,13.7
2022-09-15T03:20:52.286Z,13.7
2022-09-15T03:21:52.261Z,13.8
2022-09-15T03:22:52.305Z,13.7
2022-09-15T03:23:52.485Z,13.7
2022-09-15T03:24:52.772Z,13.8
2022-09-15T03:25:52.637Z,13.8
2022-09-15T03:26:52.764Z,13.8
2022-09-15T03:27:52.580Z,13.8
2022-09-15T03:28:52.505Z,13.8
2022-09-15T03:29:52.671Z,13.8
2022-09-15T03:30:52.621Z,13.8
2022-09-15T03:31:52.970Z,13.7
2022-09-15T03:32:55.484Z,13.7
2022-09-15T03:33:52.740Z,13.8
2022-09-15T03:34:56.423Z,13.7
2022-09-15T03:35:52.731Z,13.7
2022-09-15T03:36:52.752Z,13.7
2022-09-15T03:37:52.907Z,13.7
2022-09-15T03:38:53.012Z,13.7
2022-09-15T03:39:52.847Z,13.7
2022-09-15T03:40:52.890Z,13.8
2022-09-15T03:41:53.422Z,13.8
2022-09-15T03:42:52.960Z,13.8
2022-09-15T03:43:53.253Z,13.8
2022-09-15T03:44:53.018Z,13.8
2022-09-15T03:45:53.127Z,13.8
2022-09-15T03:46:53.083Z,13.8
2022-09-15T03:47:53.439Z,13.8
2022-09-15T03:48:53.180Z,13.7
2022-09-15T03:49:53.257Z,13.7
2022-09-15T03:50:53.307Z,13.8
2022-09-15T03:51:53.241Z,13.9
2022-09-15T03:52:56.763Z,13.9
2022-09-15T03:53:53.397Z,13.8
2022-09-15T03:54:53.682Z,13.7
2022-09-15T03:55:53.449Z,13.8
2022-09-15T03:56:53.849Z,13.8
2022-09-15T03:57:53.829Z,13.9
2022-09-15T03:58:53.758Z,13.9
2022-09-15T03:59:53.841Z,13.8
2022-09-15T04:00:53.864Z,13.8
2022-09-15T04:01:54.257Z,13.8
2022-09-15T04:02:53.942Z,13.8
2022-09-15T04:03:54.074Z,13.8
2022-09-15T04:04:54.122Z,13.8
2022-09-15T04:05:54.363Z,13.7
2022-09-15T04:06:54.803Z,13.7
2022-09-15T04:07:54.875Z,13.8
2022-09-15T04:08:54.634Z,13.8
2022-09-15T04:09:54.658Z,13.7
2022-09-15T04:10:54.800Z,13.7
2022-09-15T04:11:56.299Z,13.7
2022-09-15T04:12:54.673Z,13.8
2022-09-15T04:13:55.226Z,13.7
2022-09-15T04:14:54.664Z,13.8
2022-09-15T04:15:54.841Z,13.8
2022-09-15T04:16:54.703Z,13.8
2022-09-15T04:17:54.867Z,13.7
2022-09-15T04:18:54.846Z,13.8
2022-09-15T04:19:55.237Z,13.9
2022-09-15T04:20:54.956Z,13.9
2022-09-15T04:21:55.319Z,13.9
2022-09-15T04:22:54.912Z,13.8
2022-09-15T04:23:54.965Z,13.7
2022-09-15T04:24:55.265Z,13.8
2022-09-15T04:25:55.474Z,13.9
2022-09-15T04:26:55.870Z,13.8
2022-09-15T04:27:55.094Z,13.9
2022-09-15T04:28:55.325Z,14
2022-09-15T04:29:55.224Z,13.8
2022-09-15T04:31:32.642Z,13.7
2022-09-15T04:31:56.302Z,13.8
2022-09-15T04:32:55.268Z,13.9
2022-09-15T04:33:56.529Z,13.8
2022-09-15T04:34:55.879Z,13.7
2022-09-15T04:35:55.876Z,13.7
2022-09-15T04:36:55.624Z,13.5
2022-09-15T04:37:56.140Z,13.5
2022-09-15T04:38:55.473Z,13.5
2022-09-15T04:39:56.464Z,13.6
2022-09-15T04:40:55.624Z,13.6
2022-09-15T04:41:57.414Z,13.7
2022-09-15T04:42:56.644Z,13.7
2022-09-15T04:43:55.695Z,13.6
2022-09-15T04:44:55.626Z,13.6
2022-09-15T04:45:55.668Z,13.5
2022-09-15T04:46:55.792Z,13.4
2022-09-15T04:47:55.750Z,13.5
2022-09-15T04:48:55.876Z,13.4
2022-09-15T04:49:55.821Z,13.5
2022-09-15T04:50:56.001Z,13.8
2022-09-15T04:51:56.904Z,13.8
2022-09-15T04:52:56.049Z,13.8
2022-09-15T04:53:55.946Z,13.7
2022-09-15T04:54:55.961Z,13.6
2022-09-15T04:55:56.028Z,13.6
2022-09-15T04:56:56.051Z,13.6
2022-09-15T04:57:56.109Z,13.7
2022-09-15T04:58:59.662Z,13.6
2022-09-15T04:59:56.185Z,13.7
2022-09-15T05:00:56.273Z,13.6
2022-09-15T05:01:56.370Z,13.6
2022-09-15T05:02:56.279Z,13.7
2022-09-15T05:03:56.558Z,13.7
2022-09-15T05:04:56.605Z,13.7
2022-09-15T05:05:56.561Z,13.8
2022-09-15T05:06:56.433Z,13.8
2022-09-15T05:07:57.743Z,13.8
2022-09-15T05:08:56.593Z,13.8
2022-09-15T05:09:56.687Z,13.7
2022-09-15T05:10:56.711Z,13.8
2022-09-15T05:12:02.073Z,13.7
2022-09-15T05:12:56.954Z,13.6
2022-09-15T05:13:56.953Z,13.7
2022-09-15T05:14:57.059Z,13.7
2022-09-15T05:15:57.126Z,13.8
2022-09-15T05:16:57.157Z,13.8
2022-09-15T05:17:57.235Z,13.9
2022-09-15T05:18:57.260Z,14
2022-09-15T05:19:57.373Z,13.8
2022-09-15T05:20:57.419Z,13.8
2022-09-15T05:21:57.729Z,13.7
2022-09-15T05:22:57.563Z,13.8
2022-09-15T05:23:57.628Z,14
2022-09-15T05:24:57.711Z,14.1
2022-09-15T05:25:57.712Z,13.9
2022-09-15T05:26:57.968Z,13.8
2022-09-15T05:27:57.747Z,13.8
2022-09-15T05:28:57.856Z,14
2022-09-15T05:30:16.445Z,13.9
2022-09-15T05:30:57.921Z,13.7
2022-09-15T05:31:58.962Z,13.6
2022-09-15T05:32:57.868Z,13.6
2022-09-15T05:33:57.901Z,13.6
2022-09-15T05:34:57.958Z,13.8
2022-09-15T05:35:57.977Z,13.9
2022-09-15T05:36:58.160Z,13.8
2022-09-15T05:37:58.107Z,13.8
2022-09-15T05:38:58.050Z,13.8
2022-09-15T05:39:58.219Z,13.7
2022-09-15T05:40:58.439Z,13.8
2022-09-15T05:41:58.136Z,13.9
2022-09-15T05:42:58.161Z,13.7
2022-09-15T05:44:00.109Z,13.6
2022-09-15T05:44:58.285Z,13.8
2022-09-15T05:45:58.291Z,13.9
2022-09-15T05:46:58.333Z,13.9
2022-09-15T05:47:58.376Z,13.8
2022-09-15T05:48:58.342Z,13.9
2022-09-15T05:49:58.532Z,13.8
2022-09-15T05:50:58.605Z,13.8
2022-09-15T05:51:58.463Z,13.9
2022-09-15T05:52:58.449Z,13.9
2022-09-15T05:53:58.582Z,13.9
2022-09-15T05:54:59.371Z,13.9
2022-09-15T05:55:59.058Z,13.9
2022-09-15T05:56:58.564Z,14.1
2022-09-15T05:57:58.615Z,14.1
2022-09-15T05:58:58.808Z,14.2
2022-09-15T05:59:58.938Z,14.1
2022-09-15T06:00:58.677Z,14.1
2022-09-15T06:01:58.811Z,14.1
2022-09-15T06:02:58.862Z,14.1
2022-09-15T06:03:58.784Z,14.1
2022-09-15T06:04:58.813Z,14.1
2022-09-15T06:05:59.090Z,14.1
2022-09-15T06:06:59.151Z,13.9
2022-09-15T06:07:58.938Z,13.9
2022-09-15T06:08:59.509Z,14
2022-09-15T06:09:59.215Z,14
2022-09-15T06:10:59.208Z,13.9
2022-09-15T06:11:59.421Z,13.8
2022-09-15T06:12:59.143Z,14
2022-09-15T06:13:59.238Z,14
2022-09-15T06:14:59.209Z,14.1
2022-09-15T06:15:59.432Z,14.1
2022-09-15T06:16:59.241Z,14
2022-09-15T06:18:04.526Z,14
2022-09-15T06:18:59.606Z,14.1
2022-09-15T06:19:59.741Z,14.2
2022-09-15T06:20:59.421Z,14.2
2022-09-15T06:22:06.772Z,14.2
2022-09-15T06:22:59.600Z,14.3
2022-09-15T06:23:59.705Z,14.2
2022-09-15T06:24:59.680Z,14.2
2022-09-15T06:26:00.083Z,14.3
2022-09-15T06:26:59.838Z,14.4
2022-09-15T06:27:59.916Z,14.3
2022-09-15T06:29:00.240Z,14.3
2022-09-15T06:30:00.055Z,14.3
2022-09-15T06:31:00.080Z,14.3
2022-09-15T06:32:01.055Z,14.4
2022-09-15T06:33:00.243Z,14.4
2022-09-15T06:34:00.330Z,14.4
2022-09-15T06:35:00.406Z,14.4
2022-09-15T06:36:00.425Z,14.5
2022-09-15T06:37:00.659Z,14.5
2022-09-15T06:38:00.482Z,14.3
2022-09-15T06:39:00.541Z,14.3
2022-09-15T06:40:02.047Z,14.3
2022-09-15T06:41:00.608Z,14.4
2022-09-15T06:42:03.649Z,14.5
2022-09-15T06:43:00.641Z,14.3
2022-09-15T06:44:00.673Z,14.3
2022-09-15T06:45:00.881Z,14.3
2022-09-15T06:46:00.741Z,14.2
2022-09-15T06:47:00.757Z,14.1
2022-09-15T06:48:20.530Z,14.1
2022-09-15T06:49:03.770Z,14.1
2022-09-15T06:50:00.863Z,14.2
2022-09-15T06:51:01.231Z,14.2
2022-09-15T06:52:00.943Z,14.2
2022-09-15T06:53:01.008Z,14.2
2022-09-15T06:54:01.039Z,14.1
2022-09-15T06:55:01.131Z,14.2
2022-09-15T06:56:01.111Z,14.1
2022-09-15T06:57:01.139Z,14.2
2022-09-15T06:58:01.250Z,14.1
2022-09-15T06:59:01.140Z,14.1
2022-09-15T07:00:01.188Z,14.3
2022-09-15T07:01:01.271Z,14.3
2022-09-15T07:02:05.014Z,14.4
2022-09-15T07:03:01.435Z,14.3
2022-09-15T07:04:01.363Z,14.3
2022-09-15T07:05:01.368Z,14.4
2022-09-15T07:06:01.428Z,14.3
2022-09-15T07:07:01.619Z,14.2
2022-09-15T07:08:01.468Z,14.1
2022-09-15T07:09:01.839Z,14.2
2022-09-15T07:10:01.544Z,14.3
2022-09-15T07:11:01.702Z,14.4
2022-09-15T07:12:01.601Z,14.3
2022-09-15T07:13:01.688Z,14.2
2022-09-15T07:14:01.791Z,14.1
2022-09-15T07:15:01.864Z,14.1
2022-09-15T07:16:02.025Z,14.2
2022-09-15T07:17:02.030Z,14.3
2022-09-15T07:18:02.152Z,14.2
2022-09-15T07:19:01.904Z,14.3
2022-09-15T07:20:01.886Z,14.3
2022-09-15T07:21:01.972Z,14.3
2022-09-15T07:22:02.013Z,14.3
2022-09-15T07:23:02.113Z,14.3
2022-09-15T07:24:06.375Z,14.3
2022-09-15T07:25:02.849Z,14.3
2022-09-15T07:26:07.349Z,14.4
2022-09-15T07:27:02.971Z,14.5
2022-09-15T07:28:02.274Z,14.5
2022-09-15T07:29:12.249Z,14.5
2022-09-15T07:30:02.276Z,14.6
2022-09-15T07:31:02.608Z,14.7
2022-09-15T07:32:07.444Z,14.5
2022-09-15T07:33:03.104Z,14.4
2022-09-15T07:34:02.543Z,14.4
2022-09-15T07:35:02.853Z,14.3
2022-09-15T07:36:02.716Z,14.3
2022-09-15T07:37:03.048Z,14.4
2022-09-15T07:38:02.983Z,14.5
2022-09-15T07:39:08.151Z,14.5
2022-09-15T07:40:02.971Z,14.5
2022-09-15T07:41:03.010Z,14.5
2022-09-15T07:42:03.711Z,14.5
2022-09-15T07:43:03.260Z,14.6
2022-09-15T07:44:03.165Z,14.5
2022-09-15T07:45:03.319Z,14.6
2022-09-15T07:46:03.431Z,14.7
2022-09-15T07:47:03.504Z,14.6
2022-09-15T07:48:03.498Z,14.7
2022-09-15T07:49:03.663Z,14.7
2022-09-15T07:50:03.812Z,14.8
2022-09-15T07:51:08.750Z,14.7
2022-09-15T07:52:03.769Z,14.8
2022-09-15T07:53:03.912Z,14.8
2022-09-15T07:54:03.668Z,14.9
2022-09-15T07:55:04.094Z,14.9
2022-09-15T07:56:03.633Z,14.9
2022-09-15T07:57:08.674Z,15
2022-09-15T07:58:04.014Z,14.9
2022-09-15T07:59:04.383Z,14.9
2022-09-15T08:00:04.003Z,15
2022-09-15T08:01:09.069Z,15
2022-09-15T08:02:04.483Z,15.1
2022-09-15T08:03:03.894Z,15.2
2022-09-15T08:04:04.318Z,15.4
2022-09-15T08:05:03.934Z,15.3
2022-09-15T08:06:03.976Z,15.2
2022-09-15T08:07:04.974Z,15.3
2022-09-15T08:08:04.060Z,15.1
2022-09-15T08:09:04.582Z,15.1
2022-09-15T08:10:09.054Z,15.2
2022-09-15T08:11:04.095Z,15.3
2022-09-15T08:12:04.609Z,15.3
2022-09-15T08:13:04.918Z,15.3
2022-09-15T08:14:04.198Z,15.4
2022-09-15T08:15:04.315Z,15.6
2022-09-15T08:16:05.416Z,15.8
2022-09-15T08:17:07.072Z,15.8
2022-09-15T08:18:04.346Z,15.6
2022-09-15T08:19:04.375Z,15.6
2022-09-15T08:20:04.446Z,15.6
2022-09-15T08:21:04.458Z,15.7
2022-09-15T08:22:04.554Z,15.7
2022-09-15T08:23:04.534Z,15.5
2022-09-15T08:24:04.495Z,15.3
2022-09-15T08:25:04.752Z,15.3
2022-09-15T08:26:04.597Z,15.4
2022-09-15T08:27:04.616Z,15.5
2022-09-15T08:28:04.878Z,15.4
2022-09-15T08:29:04.907Z,15.5
2022-09-15T08:30:04.784Z,15.7
2022-09-15T08:31:04.838Z,15.8
2022-09-15T08:32:10.038Z,15.7
2022-09-15T08:33:05.166Z,15.8
2022-09-15T08:34:04.892Z,16
2022-09-15T08:35:05.008Z,16.1
2022-09-15T08:36:05.330Z,16
2022-09-15T08:37:06.012Z,16
2022-09-15T08:38:05.282Z,15.9
2022-09-15T08:39:05.078Z,15.9
2022-09-15T08:40:05.241Z,15.8
2022-09-15T08:41:05.116Z,15.9
2022-09-15T08:42:05.255Z,15.9
2022-09-15T08:43:05.206Z,15.9
2022-09-15T08:45:41.762Z,16.1
2022-09-15T08:46:09.672Z,15.9
2022-09-15T08:47:05.704Z,15.9
2022-09-15T08:48:05.613Z,16.1
2022-09-15T08:49:05.687Z,16.1
2022-09-15T08:50:05.991Z,16
2022-09-15T08:51:05.994Z,16.1
2022-09-15T08:52:14.093Z,16.2
2022-09-15T08:53:05.908Z,16.1
2022-09-15T08:54:06.502Z,16.2
2022-09-15T08:55:06.211Z,16.2
2022-09-15T08:56:10.159Z,16.3
2022-09-15T08:57:06.195Z,16.2
2022-09-15T08:58:06.296Z,15.9
2022-09-15T08:59:07.333Z,15.8
2022-09-15T09:00:06.370Z,15.7
2022-09-15T09:01:08.208Z,15.6
2022-09-15T09:02:19.964Z,15.6
2022-09-15T09:03:06.660Z,15.6
2022-09-15T09:04:08.750Z,15.7
2022-09-15T09:05:06.547Z,15.6
2022-09-15T09:06:06.629Z,15.7
2022-09-15T09:07:06.764Z,16
2022-09-15T09:08:06.742Z,15.9
2022-09-15T09:09:11.589Z,15.9
2022-09-15T09:10:06.630Z,15.9
2022-09-15T09:11:07.166Z,16
2022-09-15T09:12:06.679Z,16.2
2022-09-15T09:13:07.081Z,16.4
2022-09-15T09:14:06.765Z,16.4
2022-09-15T09:15:06.780Z,16.3
2022-09-15T09:16:07.202Z,16.3
2022-09-15T09:17:07.156Z,16.3
2022-09-15T09:18:06.910Z,16.3
2022-09-15T09:19:06.916Z,16.2
2022-09-15T09:20:12.653Z,16.1
2022-09-15T09:21:07.015Z,16.3
2022-09-15T09:22:07.174Z,16.3
2022-09-15T09:23:07.054Z,16.3
2022-09-15T09:24:07.314Z,16.2
2022-09-15T09:25:21.397Z,16.3
2022-09-15T09:26:10.409Z,16.2
2022-09-15T09:27:07.242Z,16
2022-09-15T09:28:07.281Z,16
2022-09-15T09:29:07.236Z,16.1
2022-09-15T09:30:09.780Z,16.2
2022-09-15T09:31:07.605Z,16.4
2022-09-15T09:32:07.665Z,16.6
2022-09-15T09:33:07.399Z,16.6
2022-09-15T09:34:07.708Z,16.7
2022-09-15T09:35:07.435Z,16.9
2022-09-15T09:36:07.474Z,16.9
2022-09-15T09:37:09.087Z,16.9
2022-09-15T09:38:07.721Z,17
2022-09-15T09:39:08.052Z,17
2022-09-15T09:40:07.958Z,17
2022-09-15T09:41:07.835Z,16.9
2022-09-15T09:42:12.928Z,16.8
2022-09-15T09:43:07.770Z,16.8
2022-09-15T09:44:07.733Z,16.6
2022-09-15T09:45:07.910Z,16.6
2022-09-15T09:46:07.868Z,16.5
2022-09-15T09:47:07.806Z,16.6
2022-09-15T09:48:08.549Z,16.6
2022-09-15T09:49:07.903Z,16.7
2022-09-15T09:50:07.918Z,16.8
2022-09-15T09:51:07.966Z,16.9
2022-09-15T09:52:07.996Z,16.8
2022-09-15T09:53:08.013Z,16.8
2022-09-15T09:54:08.088Z,16.6
2022-09-15T09:55:08.202Z,16.6
2022-09-15T09:56:09.442Z,16.8
2022-09-15T09:57:08.347Z,17
2022-09-15T09:58:08.457Z,16.9
2022-09-15T09:59:08.715Z,16.9
2022-09-15T10:00:08.718Z,16.9
2022-09-15T10:01:14.093Z,16.9
2022-09-15T10:02:08.737Z,16.9
2022-09-15T10:03:08.893Z,16.9
2022-09-15T10:04:09.121Z,16.9
2022-09-15T10:05:09.196Z,16.8
2022-09-15T10:06:09.553Z,17
2022-09-15T10:07:09.061Z,17.1
2022-09-15T10:08:09.132Z,17.2
2022-09-15T10:09:09.148Z,17.2
2022-09-15T10:10:09.219Z,17.3
2022-09-15T10:11:09.262Z,17.2
2022-09-15T10:12:09.324Z,17.1
2022-09-15T10:13:09.613Z,17.1
2022-09-15T10:14:09.404Z,17.1
2022-09-15T10:15:14.428Z,16.9
2022-09-15T10:16:09.992Z,16.9
2022-09-15T10:17:09.601Z,16.9
2022-09-15T10:18:15.548Z,16.9
2022-09-15T10:19:10.589Z,16.9
2022-09-15T10:20:09.589Z,16.9
2022-09-15T10:21:09.765Z,16.8
2022-09-15T10:22:09.608Z,16.9
2022-09-15T10:23:09.658Z,17
2022-09-15T10:24:09.799Z,17
2022-09-15T10:25:09.698Z,16.8
2022-09-15T10:26:09.875Z,16.7
2022-09-15T10:27:09.811Z,16.8
2022-09-15T10:28:10.175Z,16.9
2022-09-15T10:29:09.858Z,16.8
2022-09-15T10:30:09.910Z,16.7
2022-09-15T10:31:10.331Z,16.7
2022-09-15T10:32:10.023Z,16.6
2022-09-15T10:33:09.983Z,16.7
2022-09-15T10:34:10.003Z,16.8
2022-09-15T10:35:10.217Z,17
2022-09-15T10:36:10.429Z,17
2022-09-15T10:37:10.139Z,17.2
2022-09-15T10:38:10.176Z,17.5
2022-09-15T10:39:10.376Z,17.4
2022-09-15T10:40:10.629Z,17.2
2022-09-15T10:41:41.590Z,17.1
2022-09-15T10:42:11.706Z,17
2022-09-15T10:43:11.348Z,16.9
2022-09-15T10:44:10.373Z,17
2022-09-15T10:45:10.520Z,17.1
2022-09-15T10:46:10.383Z,17.2
2022-09-15T10:47:10.436Z,17.3
2022-09-15T10:48:10.899Z,17
2022-09-15T10:49:10.529Z,17.2
2022-09-15T10:50:10.638Z,17.1
2022-09-15T10:51:10.671Z,17.2
2022-09-15T10:52:10.671Z,17.2
2022-09-15T10:53:16.659Z,17.4
2022-09-15T10:54:11.229Z,17.4
2022-09-15T10:55:10.914Z,17.4
2022-09-15T10:56:15.822Z,17.4
2022-09-15T10:57:11.040Z,17.4
2022-09-15T10:58:10.798Z,17.3
2022-09-15T10:59:11.091Z,17.4
2022-09-15T11:00:10.873Z,17.5
2022-09-15T11:01:10.895Z,17.6
2022-09-15T11:02:10.980Z,17.7
2022-09-15T11:03:10.917Z,18
2022-09-15T11:04:10.962Z,18.2
2022-09-15T11:05:11.006Z,18.1
2022-09-15T11:06:11.081Z,18
2022-09-15T11:07:11.161Z,17.9
2022-09-15T11:08:11.376Z,17.8
2022-09-15T11:09:11.581Z,17.7
2022-09-15T11:10:11.357Z,17.8
2022-09-15T11:11:11.439Z,17.7
2022-09-15T11:12:11.690Z,17.5
2022-09-15T11:13:11.814Z,17.6
2022-09-15T11:14:11.912Z,17.6
2022-09-15T11:15:11.934Z,17.8
2022-09-15T11:16:12.843Z,18
2022-09-15T11:17:17.093Z,17.9
2022-09-15T11:18:13.235Z,17.7
2022-09-15T11:19:15.167Z,17.6
2022-09-15T11:20:13.604Z,17.6
2022-09-15T11:21:33.178Z,17.7
2022-09-15T11:22:13.888Z,17.9
2022-09-15T11:23:13.502Z,18
2022-09-15T11:24:20.713Z,17.8
2022-09-15T11:25:12.179Z,17.8
2022-09-15T11:26:43.362Z,17.8
2022-09-15T11:27:12.585Z,17.9
2022-09-15T11:28:12.424Z,17.8
2022-09-15T11:29:12.536Z,17.7
2022-09-15T11:30:12.347Z,17.6
2022-09-15T11:31:12.421Z,17.5
2022-09-15T11:32:12.604Z,17.4
2022-09-15T11:33:12.724Z,17.5
2022-09-15T11:34:12.822Z,17.4
2022-09-15T11:35:12.796Z,17.3
2022-09-15T11:36:12.754Z,17.2
2022-09-15T11:37:12.775Z,17.2
2022-09-15T11:38:12.955Z,17.1
2022-09-15T11:39:12.684Z,17
2022-09-15T11:40:12.781Z,17
2022-09-15T11:41:12.950Z,17
2022-09-15T11:42:12.775Z,17.1
2022-09-15T11:43:13.905Z,17.1
2022-09-15T11:44:16.158Z,17.1
2022-09-15T11:45:12.966Z,17.2
2022-09-15T11:46:12.986Z,17.3
2022-09-15T11:47:13.321Z,17.3
2022-09-15T11:48:13.058Z,17.3
2022-09-15T11:49:18.014Z,17.3
2022-09-15T11:50:18.201Z,17.1
2022-09-15T11:51:13.115Z,17.1
2022-09-15T11:52:13.142Z,17.2
2022-09-15T11:53:13.459Z,17.5
2022-09-15T11:54:18.306Z,17.4
2022-09-15T11:55:13.542Z,17.5
2022-09-15T11:56:34.889Z,17.6
2022-09-15T11:57:13.522Z,17.5
2022-09-15T11:58:13.315Z,17.2
2022-09-15T11:59:13.364Z,17
2022-09-15T12:00:13.366Z,17
2022-09-15T12:01:13.414Z,17.2
2022-09-15T12:02:13.479Z,17.2
2022-09-15T12:03:13.820Z,17.2
2022-09-15T12:04:13.760Z,17.2
2022-09-15T12:05:19.486Z,17.3
2022-09-15T12:06:13.567Z,17.3
2022-09-15T12:07:14.433Z,17.4
2022-09-15T12:08:18.856Z,17.3
2022-09-15T12:09:13.943Z,17.2
2022-09-15T12:10:13.952Z,17.1
2022-09-15T12:11:13.840Z,17.1
2022-09-15T12:12:18.876Z,17.2
2022-09-15T12:13:14.944Z,17.4
2022-09-15T12:14:13.841Z,17.4
2022-09-15T12:15:13.881Z,17.4
2022-09-15T12:16:18.972Z,17.5
2022-09-15T12:17:13.982Z,17.5
2022-09-15T12:18:27.609Z,17.5
2022-09-15T12:19:15.106Z,17.5
2022-09-15T12:20:14.449Z,17.6
2022-09-15T12:21:14.239Z,17.5
2022-09-15T12:22:14.277Z,17.5
2022-09-15T12:23:14.341Z,17.8
2022-09-15T12:24:14.490Z,17.9
2022-09-15T12:25:14.669Z,18.3
2022-09-15T12:26:14.545Z,18.6
2022-09-15T12:27:14.575Z,18.5
2022-09-15T12:28:14.598Z,18.9
2022-09-15T12:29:15.184Z,19.5
2022-09-15T12:30:15.040Z,19.7
2022-09-15T12:31:15.327Z,19.8
2022-09-15T12:32:14.857Z,19.6
2022-09-15T12:33:17.158Z,19.5
2022-09-15T12:34:17.083Z,19.2
2022-09-15T12:35:16.161Z,19
2022-09-15T12:36:16.182Z,18.8
2022-09-15T12:37:15.056Z,18.6
2022-09-15T12:39:24.525Z,18.6
2022-09-15T12:41:27.520Z,18.9
2022-09-15T12:42:27.607Z,18.9
2022-09-15T12:43:27.626Z,18.9
2022-09-15T12:44:32.917Z,19
2022-09-15T12:45:27.699Z,19
2022-09-15T12:46:27.935Z,18.8
2022-09-15T12:47:27.753Z,18.5
2022-09-15T12:48:47.319Z,18.5
2022-09-15T12:49:27.883Z,18.3
2022-09-15T12:50:28.239Z,18.2
2022-09-15T12:51:27.925Z,18.3
2022-09-15T12:52:28.940Z,18.3
2022-09-15T12:53:28.033Z,18.1
2022-09-15T12:54:28.746Z,18.1
2022-09-15T12:55:28.201Z,18
2022-09-15T12:56:28.077Z,18.1
2022-09-15T12:57:28.132Z,18.1
2022-09-15T12:58:28.142Z,18
2022-09-15T12:59:28.197Z,18
2022-09-15T13:00:28.243Z,18.1
2022-09-15T13:02:32.036Z,18.5
2022-09-15T13:02:55.604Z,19
2022-09-15T13:03:28.379Z,19.3
2022-09-15T13:04:28.519Z,19.4
2022-09-15T13:05:28.607Z,19.4
2022-09-15T13:06:28.513Z,19.4
2022-09-15T13:07:28.498Z,19.2
2022-09-15T13:08:28.867Z,18.9
2022-09-15T13:09:28.517Z,18.7
2022-09-15T13:10:28.539Z,18.8
2022-09-15T13:11:28.568Z,18.9
2022-09-15T13:12:29.180Z,18.8
2022-09-15T13:13:29.907Z,18.9
2022-09-15T13:14:28.863Z,18.7
2022-09-15T13:15:28.928Z,18.5
2022-09-15T13:16:28.763Z,18.6
2022-09-15T13:17:28.794Z,18.5
2022-09-15T13:18:28.809Z,18.5
2022-09-15T13:19:28.830Z,18.3
2022-09-15T13:20:28.902Z,18.1
2022-09-15T13:21:28.924Z,17.9
2022-09-15T13:22:28.949Z,17.9
2022-09-15T13:23:29.203Z,17.8
2022-09-15T13:24:29.110Z,17.8
2022-09-15T13:25:29.016Z,17.9
2022-09-15T13:26:31.324Z,17.8
2022-09-15T13:27:29.439Z,17.7
2022-09-15T13:28:29.340Z,17.8
2022-09-15T13:29:29.296Z,17.8